Sao Joao de Barra, Brazil
Current Conditions -  °F | °C
As of 1:00 PM on Saturday 22 Nov 2014 (Local Time) from SBBQ Reporting Station
Broken Clouds Broken Clouds  
Wind Chill: 84°   Ceiling: 4000
Heat Index: 84°   Visibility: 6mi
Dew Point: 55°   Wind: 8mph
Humidity: 37%   Direction: 290°WNW
Pressure: 30.12"   Gusts: NA
Location:  21.13°S, 44.27°W
Report Text: SBBQ 221500Z 29007KT 9999 BKN040 29/13 Q1020
Loading
Personal Weather Stations






























Interactive Weather Map New forecast layout! Learn more

10-Day Weather Forecast

Advertisements
Track Severe Weather on mobile